Time;durP1;ratioP1;P1;durP2;ratioP2;P2;SDS_P1;SDS_P2;PMS_P1;PMS_P2;Temp;Humidity;BMP_temperature;BMP_pressure;BME280_temperature;BME280_humidity;BME280_pressure;Samples;Min_cycle;Max_cycle;Signal;HPM_P1;HPM_P2
2023/09/26 00:02:28;;;;;;;15.82;5.85;;;;;;;;;;4866767;29;20034;-78
2023/09/26 00:05:03;;;;;;;13.10;6.20;;;;;;;;;;4866334;29;20046;-78
2023/09/26 00:07:38;;;;;;;16.05;6.00;;;;;;;;;;4850841;29;20050;-77
2023/09/26 00:10:11;;;;;;;12.50;6.05;;;;;;;;;;4896410;29;20036;-79
2023/09/26 00:12:43;;;;;;;14.20;6.47;;;;;;;;;;4862295;29;20053;-76
2023/09/26 00:15:19;;;;;;;14.80;5.47;;;;;;;;;;4859973;29;20057;-77
2023/09/26 00:17:51;;;;;;;13.18;6.38;;;;;;;;;;4843322;29;20046;-77
2023/09/26 00:20:26;;;;;;;16.77;6.47;;;;;;;;;;4827545;29;20050;-78
2023/09/26 00:23:02;;;;;;;13.73;5.70;;;;;;;;;;4826276;29;20054;-78
2023/09/26 00:25:40;;;;;;;14.63;6.00;;;;;;;;;;4870735;29;20054;-78
2023/09/26 00:28:10;;;;;;;11.18;5.78;;;;;;;;;;4842642;29;20053;-78
2023/09/26 00:30:41;;;;;;;12.43;5.90;;;;;;;;;;4861002;29;20057;-78
2023/09/26 00:33:18;;;;;;;13.48;5.68;;;;;;;;;;4842356;29;20065;-78
2023/09/26 00:35:50;;;;;;;12.15;5.65;;;;;;;;;;4825668;29;20053;-77
2023/09/26 00:38:22;;;;;;;15.73;6.43;;;;;;;;;;4856177;29;20072;-78
2023/09/26 00:40:52;;;;;;;13.55;6.07;;;;;;;;;;4853532;29;20045;-77
2023/09/26 00:43:24;;;;;;;12.82;6.07;;;;;;;;;;4858458;29;20061;-77
2023/09/26 00:46:05;;;;;;;11.35;5.25;;;;;;;;;;4858687;29;20057;-76
2023/09/26 00:48:50;;;;;;;13.93;5.93;;;;;;;;;;4822488;29;20603;-77
2023/09/26 00:51:26;;;;;;;16.33;6.55;;;;;;;;;;4857900;29;20432;-76
2023/09/26 00:53:58;;;;;;;11.93;6.60;;;;;;;;;;4844009;29;20426;-78
2023/09/26 00:56:29;;;;;;;13.00;5.57;;;;;;;;;;4861542;29;20421;-77
2023/09/26 00:59:00;;;;;;;14.77;5.97;;;;;;;;;;4860961;29;20056;-76
2023/09/26 01:01:31;;;;;;;13.88;6.40;;;;;;;;;;4843920;29;20065;-78
2023/09/26 01:04:07;;;;;;;11.95;5.57;;;;;;;;;;4852283;29;20054;-77
2023/09/26 01:06:38;;;;;;;12.95;5.80;;;;;;;;;;4842652;29;20382;-77
2023/09/26 01:09:12;;;;;;;12.35;5.78;;;;;;;;;;4845883;29;20531;-77
2023/09/26 01:11:44;;;;;;;16.40;5.85;;;;;;;;;;4843788;29;20049;-77
2023/09/26 01:14:16;;;;;;;17.83;6.38;;;;;;;;;;4856587;29;20045;-77
2023/09/26 01:16:55;;;;;;;13.85;5.93;;;;;;;;;;4859866;29;20041;-77
2023/09/26 01:19:28;;;;;;;15.00;6.05;;;;;;;;;;4843266;29;20049;-78
2023/09/26 01:21:58;;;;;;;20.23;7.75;;;;;;;;;;4859268;29;20045;-77
2023/09/26 01:24:31;;;;;;;16.23;5.97;;;;;;;;;;4837066;29;20058;-77
2023/09/26 01:27:02;;;;;;;14.98;6.28;;;;;;;;;;4844045;29;20444;-77
2023/09/26 01:29:33;;;;;;;13.68;6.25;;;;;;;;;;4860623;29;20049;-77
2023/09/26 01:32:03;;;;;;;18.10;6.07;;;;;;;;;;4843921;29;20061;-77
2023/09/26 01:34:36;;;;;;;18.95;5.85;;;;;;;;;;4847236;29;20050;-77
2023/09/26 01:37:09;;;;;;;10.40;6.05;;;;;;;;;;4825754;29;20617;-78
2023/09/26 01:39:39;;;;;;;16.17;6.50;;;;;;;;;;4842079;29;20057;-76
2023/09/26 01:42:10;;;;;;;9.55;5.50;;;;;;;;;;4842352;29;20528;-76
2023/09/26 01:44:42;;;;;;;14.70;6.35;;;;;;;;;;4841965;29;20062;-77
2023/09/26 01:47:25;;;;;;;14.18;6.47;;;;;;;;;;4825699;29;20061;-78
2023/09/26 01:49:56;;;;;;;11.15;6.85;;;;;;;;;;4841912;29;20402;-76
2023/09/26 01:52:26;;;;;;;12.88;6.18;;;;;;;;;;4842120;29;20046;-78
2023/09/26 01:54:58;;;;;;;11.73;5.60;;;;;;;;;;4841095;29;20065;-77
2023/09/26 01:57:31;;;;;;;15.45;6.85;;;;;;;;;;4825295;29;20422;-76
2023/09/26 02:00:12;;;;;;;15.82;6.05;;;;;;;;;;4826235;29;20129;-77
2023/09/26 02:02:46;;;;;;;16.20;6.57;;;;;;;;;;4843760;29;20042;-77
2023/09/26 02:05:21;;;;;;;12.57;6.00;;;;;;;;;;4859182;29;20050;-76
2023/09/26 02:07:55;;;;;;;14.55;6.15;;;;;;;;;;4857969;29;20416;-78
2023/09/26 02:10:27;;;;;;;14.13;5.72;;;;;;;;;;4843578;29;20101;-76
2023/09/26 02:12:57;;;;;;;14.73;6.30;;;;;;;;;;4860104;29;20045;-77
2023/09/26 02:15:28;;;;;;;15.45;6.97;;;;;;;;;;4858615;29;20424;-76
2023/09/26 02:18:00;;;;;;;14.70;6.40;;;;;;;;;;4858059;29;20061;-77
2023/09/26 02:20:33;;;;;;;12.43;6.00;;;;;;;;;;4843274;29;20516;-77
2023/09/26 02:23:04;;;;;;;11.52;6.10;;;;;;;;;;4843539;29;20058;-77
2023/09/26 02:25:36;;;;;;;12.80;6.15;;;;;;;;;;4859887;29;20053;-78
2023/09/26 02:28:10;;;;;;;13.50;6.22;;;;;;;;;;4860242;29;20049;-77
2023/09/26 02:30:42;;;;;;;14.68;5.80;;;;;;;;;;4842297;29;20061;-77
2023/09/26 02:33:12;;;;;;;11.07;5.80;;;;;;;;;;4859977;29;20049;-77
2023/09/26 02:35:42;;;;;;;15.98;6.32;;;;;;;;;;4842977;29;20061;-78
2023/09/26 02:38:14;;;;;;;13.38;6.13;;;;;;;;;;4860226;29;20068;-79
2023/09/26 02:40:48;;;;;;;17.58;6.72;;;;;;;;;;4859166;29;20093;-77
2023/09/26 02:43:18;;;;;;;17.45;6.07;;;;;;;;;;4859803;29;20392;-77
2023/09/26 02:45:50;;;;;;;16.20;6.53;;;;;;;;;;4859897;29;20049;-77
2023/09/26 02:48:24;;;;;;;12.27;6.05;;;;;;;;;;4874006;29;20049;-77
2023/09/26 02:51:05;;;;;;;17.85;7.55;;;;;;;;;;4841356;29;20046;-79
2023/09/26 02:53:36;;;;;;;13.27;6.50;;;;;;;;;;4859470;29;20473;-77
2023/09/26 02:56:10;;;;;;;18.10;6.82;;;;;;;;;;4843535;29;20053;-78
2023/09/26 02:58:43;;;;;;;16.08;7.15;;;;;;;;;;4859709;29;20378;-77
2023/09/26 03:01:17;;;;;;;11.60;6.07;;;;;;;;;;4836632;29;20057;-77
2023/09/26 03:03:49;;;;;;;10.77;6.18;;;;;;;;;;4824243;29;20053;-76
2023/09/26 03:06:21;;;;;;;19.00;6.20;;;;;;;;;;4843418;29;20058;-78
2023/09/26 03:08:51;;;;;;;12.52;6.70;;;;;;;;;;4827223;29;20062;-77
2023/09/26 03:11:24;;;;;;;16.67;6.78;;;;;;;;;;4844368;29;20053;-78
2023/09/26 03:13:57;;;;;;;17.88;6.63;;;;;;;;;;4844304;29;20046;-78
2023/09/26 03:16:29;;;;;;;14.88;7.25;;;;;;;;;;4857180;29;20394;-76
2023/09/26 03:19:00;;;;;;;16.23;6.65;;;;;;;;;;4844107;29;20050;-77
2023/09/26 03:21:30;;;;;;;16.25;6.43;;;;;;;;;;4844205;29;20050;-77
2023/09/26 03:24:01;;;;;;;22.23;6.85;;;;;;;;;;4827107;29;20057;-76
2023/09/26 03:26:32;;;;;;;13.48;6.57;;;;;;;;;;4844141;29;20050;-76
2023/09/26 03:29:03;;;;;;;13.68;6.20;;;;;;;;;;4843500;29;20046;-77
2023/09/26 03:31:38;;;;;;;17.75;6.35;;;;;;;;;;4827583;29;20497;-77
2023/09/26 03:34:12;;;;;;;16.73;6.95;;;;;;;;;;4827883;29;20073;-76
2023/09/26 03:36:44;;;;;;;16.80;6.55;;;;;;;;;;4843705;29;20054;-76
2023/09/26 03:39:15;;;;;;;17.60;6.90;;;;;;;;;;4827106;29;20057;-77
2023/09/26 03:41:50;;;;;;;17.33;6.50;;;;;;;;;;4826858;29;20072;-76
2023/09/26 03:44:23;;;;;;;17.75;7.18;;;;;;;;;;4844411;29;20050;-76
2023/09/26 03:46:55;;;;;;;13.45;6.82;;;;;;;;;;4843963;29;20052;-77
2023/09/26 03:49:25;;;;;;;15.73;6.47;;;;;;;;;;4843667;29;20065;-76
2023/09/26 03:51:56;;;;;;;18.10;6.68;;;;;;;;;;4844036;29;20457;-76
2023/09/26 03:54:28;;;;;;;13.80;6.70;;;;;;;;;;4843974;29;20121;-77
2023/09/26 03:57:01;;;;;;;15.38;6.95;;;;;;;;;;4843931;29;20050;-77
2023/09/26 03:59:31;;;;;;;21.50;8.30;;;;;;;;;;4844205;29;20401;-77
2023/09/26 04:02:01;;;;;;;18.52;7.53;;;;;;;;;;4844191;29;20513;-77
2023/09/26 04:04:33;;;;;;;;;;;;;;;;;;4845637;29;20058;-76
2023/09/26 04:07:06;;;;;;;13.52;7.45;;;;;;;;;;4828262;29;20288;-77
2023/09/26 04:09:37;;;;;;;17.05;6.47;;;;;;;;;;4844027;29;20050;-77
2023/09/26 04:12:09;;;;;;;;;;;;;;;;;;4845115;29;20401;-77
2023/09/26 04:14:41;;;;;;;16.45;6.50;;;;;;;;;;4844486;29;19925;-76
2023/09/26 04:17:13;;;;;;;17.02;6.90;;;;;;;;;;4844456;29;20058;-79
2023/09/26 04:19:47;;;;;;;16.35;6.85;;;;;;;;;;4844810;29;20054;-77
2023/09/26 04:22:20;;;;;;;15.27;7.05;;;;;;;;;;4844311;29;20050;-77
2023/09/26 04:24:51;;;;;;;13.82;6.68;;;;;;;;;;4844226;29;20045;-77
2023/09/26 04:27:26;;;;;;;18.67;6.80;;;;;;;;;;4844352;29;20073;-77
2023/09/26 04:30:00;;;;;;;15.70;6.95;;;;;;;;;;4844647;29;20072;-78
2023/09/26 04:32:55;;;;;;;12.43;6.65;;;;;;;;;;4844391;29;20057;-76
2023/09/26 04:36:18;;;;;;;16.30;7.00;;;;;;;;;;4844036;29;20053;-77
2023/09/26 04:39:37;;;;;;;17.92;7.05;;;;;;;;;;4844377;29;20482;-77
2023/09/26 04:49:15;;;;;;;16.70;7.43;;;;;;;;;;4843688;29;20481;-77
2023/09/26 04:51:45;;;;;;;15.18;7.43;;;;;;;;;;4843984;29;20042;-78
2023/09/26 04:54:15;;;;;;;15.80;7.07;;;;;;;;;;4843764;29;20056;-78
2023/09/26 04:56:48;;;;;;;18.63;7.78;;;;;;;;;;4844055;29;20121;-74
2023/09/26 04:59:25;;;;;;;17.17;8.05;;;;;;;;;;4844058;29;20061;-76
2023/09/26 05:01:56;;;;;;;15.73;7.72;;;;;;;;;;4843637;29;20066;-74
2023/09/26 05:04:26;;;;;;;14.25;7.05;;;;;;;;;;4827949;29;20098;-77
2023/09/26 05:06:57;;;;;;;15.63;7.55;;;;;;;;;;4843562;29;20053;-76
2023/09/26 05:09:28;;;;;;;15.82;7.45;;;;;;;;;;4843455;29;20050;-76
2023/09/26 05:11:58;;;;;;;22.83;7.95;;;;;;;;;;4843493;29;20056;-76
2023/09/26 05:14:30;;;;;;;18.63;8.07;;;;;;;;;;4844119;29;20359;-76
2023/09/26 05:17:00;;;;;;;16.77;7.50;;;;;;;;;;4843317;29;20053;-76
2023/09/26 05:19:35;;;;;;;17.63;7.75;;;;;;;;;;4843207;29;20054;-75
2023/09/26 05:22:07;;;;;;;17.60;7.88;;;;;;;;;;4843967;29;20057;-78
2023/09/26 05:24:41;;;;;;;18.65;8.30;;;;;;;;;;4848932;29;20494;-78
2023/09/26 05:27:11;;;;;;;20.77;7.80;;;;;;;;;;4861839;29;20052;-76
2023/09/26 05:29:44;;;;;;;18.88;7.35;;;;;;;;;;4861597;29;20061;-78
2023/09/26 05:32:13;;;;;;;19.05;7.72;;;;;;;;;;4861718;29;20048;-78
2023/09/26 05:34:44;;;;;;;18.90;7.15;;;;;;;;;;4861547;29;20052;-78
2023/09/26 05:37:20;;;;;;;17.10;9.02;;;;;;;;;;4861689;29;20409;-78
2023/09/26 05:39:51;;;;;;;16.95;8.02;;;;;;;;;;4861653;29;20057;-78
2023/09/26 05:42:22;;;;;;;22.52;8.20;;;;;;;;;;4861448;29;20072;-77
2023/09/26 05:44:55;;;;;;;15.02;7.57;;;;;;;;;;4845929;29;20420;-77
2023/09/26 05:47:30;;;;;;;22.30;7.70;;;;;;;;;;4861324;29;20049;-77
2023/09/26 05:50:03;;;;;;;17.95;7.63;;;;;;;;;;4861947;29;20061;-78
2023/09/26 05:52:33;;;;;;;;;;;;;;;;;;4861833;29;20056;-77
2023/09/26 05:55:03;;;;;;;18.42;8.45;;;;;;;;;;4861229;29;19931;-77
2023/09/26 05:57:38;;;;;;;17.20;7.13;;;;;;;;;;4861350;29;20052;-77
2023/09/26 06:00:12;;;;;;;17.70;7.28;;;;;;;;;;4861614;29;20478;-77
2023/09/26 06:02:44;;;;;;;16.23;8.00;;;;;;;;;;4861280;29;20053;-77
2023/09/26 06:05:16;;;;;;;16.67;7.38;;;;;;;;;;4860969;29;20053;-78
2023/09/26 06:07:47;;;;;;;13.13;6.93;;;;;;;;;;4861061;29;20052;-76
2023/09/26 06:10:19;;;;;;;19.80;7.97;;;;;;;;;;4861229;29;20046;-78
2023/09/26 06:12:49;;;;;;;19.63;8.15;;;;;;;;;;4861067;29;20045;-77
2023/09/26 06:15:23;;;;;;;15.60;7.15;;;;;;;;;;4861410;29;20050;-76
2023/09/26 06:18:02;;;;;;;15.65;8.18;;;;;;;;;;4861031;29;20056;-76
2023/09/26 06:20:34;;;;;;;14.73;7.90;;;;;;;;;;4861372;29;20049;-76
2023/09/26 06:23:05;;;;;;;23.90;8.02;;;;;;;;;;4860902;29;20053;-76
2023/09/26 06:25:38;;;;;;;17.63;8.63;;;;;;;;;;4861053;29;20389;-76
2023/09/26 06:28:28;;;;;;;19.05;8.43;;;;;;;;;;4860783;29;20049;-76
2023/09/26 06:31:05;;;;;;;14.20;7.10;;;;;;;;;;4860891;29;20045;-76
2023/09/26 06:33:37;;;;;;;21.77;8.10;;;;;;;;;;4860799;29;20049;-77
2023/09/26 06:36:17;;;;;;;18.38;9.00;;;;;;;;;;4860852;29;20402;-76
2023/09/26 06:38:48;;;;;;;21.08;7.68;;;;;;;;;;4861397;29;20066;-75
2023/09/26 06:41:19;;;;;;;18.42;7.88;;;;;;;;;;4863264;29;20045;-76
2023/09/26 06:43:49;;;;;;;16.77;8.00;;;;;;;;;;4864630;29;20053;-77
2023/09/26 06:46:21;;;;;;;14.95;7.40;;;;;;;;;;4864482;29;20058;-76
2023/09/26 06:48:52;;;;;;;22.40;8.20;;;;;;;;;;4864524;29;20073;-77
2023/09/26 06:51:24;;;;;;;15.90;8.13;;;;;;;;;;4865249;29;20082;-76
2023/09/26 06:53:54;;;;;;;19.30;8.18;;;;;;;;;;4864461;29;20045;-79
2023/09/26 06:56:28;;;;;;;16.73;7.28;;;;;;;;;;4864432;29;20053;-76
2023/09/26 06:58:58;;;;;;;19.42;7.63;;;;;;;;;;4864391;29;20057;-76
2023/09/26 07:01:30;;;;;;;17.85;7.90;;;;;;;;;;4864382;29;20056;-76
2023/09/26 07:04:00;;;;;;;21.85;7.70;;;;;;;;;;4864415;29;20053;-76
2023/09/26 07:06:31;;;;;;;16.85;8.88;;;;;;;;;;4864251;29;20401;-76
2023/09/26 07:09:01;;;;;;;19.55;8.43;;;;;;;;;;4864092;29;20045;-77
2023/09/26 07:11:33;;;;;;;21.27;7.53;;;;;;;;;;4863367;29;20049;-76
2023/09/26 07:14:04;;;;;;;16.92;7.97;;;;;;;;;;4863801;29;20057;-77
2023/09/26 07:16:36;;;;;;;17.50;8.00;;;;;;;;;;4863987;29;20049;-77
2023/09/26 07:19:07;;;;;;;17.75;8.57;;;;;;;;;;4864371;29;20049;-77
2023/09/26 07:21:38;;;;;;;15.48;7.32;;;;;;;;;;4864618;29;20049;-77
2023/09/26 07:24:08;;;;;;;16.75;8.15;;;;;;;;;;4863809;29;20045;-77
2023/09/26 07:26:40;;;;;;;16.30;8.13;;;;;;;;;;4884924;29;20048;-78
2023/09/26 07:29:14;;;;;;;15.57;7.80;;;;;;;;;;4887573;29;20036;-78
2023/09/26 07:31:46;;;;;;;14.80;7.68;;;;;;;;;;4872100;29;20034;-77
2023/09/26 07:34:17;;;;;;;14.85;7.72;;;;;;;;;;4887480;29;20036;-79
2023/09/26 07:36:48;;;;;;;15.07;7.68;;;;;;;;;;4871786;29;20038;-77
2023/09/26 07:39:22;;;;;;;17.80;7.38;;;;;;;;;;4887172;29;20044;-78
2023/09/26 07:41:56;;;;;;;15.82;7.72;;;;;;;;;;4887431;29;20030;-77
2023/09/26 07:44:26;;;;;;;14.73;7.63;;;;;;;;;;4874763;29;20049;-77
2023/09/26 07:46:58;;;;;;;16.92;7.75;;;;;;;;;;4863669;29;20405;-77
2023/09/26 07:49:29;;;;;;;15.73;7.35;;;;;;;;;;4863550;29;20057;-78
2023/09/26 07:52:01;;;;;;;14.88;7.53;;;;;;;;;;4862010;29;20064;-77
2023/09/26 07:54:32;;;;;;;15.10;7.43;;;;;;;;;;4863400;29;20481;-76
2023/09/26 07:57:03;;;;;;;13.43;7.13;;;;;;;;;;4863842;29;20421;-77
2023/09/26 07:59:34;;;;;;;21.23;7.75;;;;;;;;;;4863641;29;20046;-78
2023/09/26 08:02:07;;;;;;;13.88;7.57;;;;;;;;;;4862624;29;20512;-76
2023/09/26 08:04:38;;;;;;;14.73;7.35;;;;;;;;;;4863184;29;20049;-76
2023/09/26 08:07:08;;;;;;;15.02;8.20;;;;;;;;;;4863378;29;20048;-76
2023/09/26 08:09:40;;;;;;;16.08;8.15;;;;;;;;;;4863125;29;20045;-76
2023/09/26 08:12:12;;;;;;;17.75;7.85;;;;;;;;;;4862999;29;20050;-77
2023/09/26 08:14:43;;;;;;;19.13;8.07;;;;;;;;;;4863290;29;20049;-76
2023/09/26 08:17:12;;;;;;;17.02;7.15;;;;;;;;;;4863112;29;20050;-76
2023/09/26 08:19:45;;;;;;;23.58;8.13;;;;;;;;;;4862512;29;20049;-76
2023/09/26 08:22:15;;;;;;;17.90;7.72;;;;;;;;;;4862957;29;20077;-75
2023/09/26 08:24:45;;;;;;;13.60;7.15;;;;;;;;;;4862516;29;20524;-77
2023/09/26 08:27:21;;;;;;;20.35;7.13;;;;;;;;;;4862981;29;20054;-77
2023/09/26 08:29:52;;;;;;;21.65;7.60;;;;;;;;;;4863220;29;20411;-77
2023/09/26 08:32:23;;;;;;;19.42;7.25;;;;;;;;;;4863334;29;20049;-77
2023/09/26 08:34:58;;;;;;;16.95;8.23;;;;;;;;;;4862660;29;20052;-76
2023/09/26 08:37:28;;;;;;;20.23;8.10;;;;;;;;;;4863028;29;20041;-78
2023/09/26 08:39:59;;;;;;;16.13;8.07;;;;;;;;;;4862293;29;20050;-77
2023/09/26 08:42:32;;;;;;;18.67;7.78;;;;;;;;;;4862630;29;20489;-76
2023/09/26 08:45:06;;;;;;;18.88;8.02;;;;;;;;;;4862623;29;20174;-77
2023/09/26 08:47:39;;;;;;;15.57;8.07;;;;;;;;;;4862704;29;20049;-79
2023/09/26 08:50:12;;;;;;;18.33;8.80;;;;;;;;;;4846309;29;20492;-77
2023/09/26 08:52:42;;;;;;;18.33;7.53;;;;;;;;;;4845095;29;20064;-77
2023/09/26 08:55:17;;;;;;;17.42;8.13;;;;;;;;;;4862681;29;20050;-77
2023/09/26 08:57:50;;;;;;;19.20;7.93;;;;;;;;;;4862186;29;20041;-77
2023/09/26 09:00:24;;;;;;;19.17;7.75;;;;;;;;;;4862100;29;20497;-77
2023/09/26 09:02:55;;;;;;;16.80;7.88;;;;;;;;;;4862078;29;20061;-77
2023/09/26 09:05:27;;;;;;;16.45;8.25;;;;;;;;;;4862175;29;20053;-77
2023/09/26 09:07:58;;;;;;;20.63;8.73;;;;;;;;;;4862139;29;20516;-75
2023/09/26 09:10:28;;;;;;;17.92;8.07;;;;;;;;;;4858950;29;20659;-78
2023/09/26 09:13:04;;;;;;;17.30;7.90;;;;;;;;;;4857478;29;20045;-77
2023/09/26 09:15:37;;;;;;;16.52;7.78;;;;;;;;;;4829173;29;20050;-76
2023/09/26 09:18:07;;;;;;;13.60;7.72;;;;;;;;;;4843387;29;20050;-77
2023/09/26 09:20:40;;;;;;;20.77;8.63;;;;;;;;;;4843461;29;20066;-78
2023/09/26 09:23:10;;;;;;;18.05;8.45;;;;;;;;;;4843471;29;20045;-77
2023/09/26 09:25:45;;;;;;;19.58;8.02;;;;;;;;;;4849412;29;20038;-77
2023/09/26 09:28:22;;;;;;;16.27;8.18;;;;;;;;;;4849175;29;20409;-77
2023/09/26 09:30:55;;;;;;;17.77;8.00;;;;;;;;;;4857262;29;20049;-77
2023/09/26 09:33:26;;;;;;;14.63;7.97;;;;;;;;;;4875071;29;20057;-77
2023/09/26 09:36:07;;;;;;;18.73;8.85;;;;;;;;;;4856334;29;20056;-76
2023/09/26 09:38:38;;;;;;;19.33;8.27;;;;;;;;;;4856244;29;20056;-77
2023/09/26 09:41:12;;;;;;;21.15;9.88;;;;;;;;;;4857867;29;20049;-77
2023/09/26 09:43:44;;;;;;;15.43;9.23;;;;;;;;;;4860563;29;20425;-76
2023/09/26 09:46:19;;;;;;;19.13;8.68;;;;;;;;;;4839513;29;20053;-77
2023/09/26 09:48:56;;;;;;;19.00;8.68;;;;;;;;;;4860815;29;20058;-77
2023/09/26 09:51:31;;;;;;;18.52;9.00;;;;;;;;;;4845004;29;20170;-77
2023/09/26 09:54:05;;;;;;;22.27;9.52;;;;;;;;;;4861223;29;20065;-77
2023/09/26 09:56:41;;;;;;;17.27;9.00;;;;;;;;;;4861114;29;20056;-76
2023/09/26 09:59:15;;;;;;;21.05;8.95;;;;;;;;;;4861490;29;20060;-76
2023/09/26 10:01:50;;;;;;;26.20;9.30;;;;;;;;;;4860785;29;20045;-78
2023/09/26 10:04:25;;;;;;;17.90;8.95;;;;;;;;;;4861139;29;20053;-77
2023/09/26 10:07:03;;;;;;;17.35;9.05;;;;;;;;;;4861651;29;20060;-78
2023/09/26 10:09:35;;;;;;;20.60;8.45;;;;;;;;;;4861379;29;20050;-77
2023/09/26 10:12:08;;;;;;;16.08;8.52;;;;;;;;;;4860766;29;20056;-77
2023/09/26 10:14:38;;;;;;;15.77;8.27;;;;;;;;;;4860681;29;20496;-77
2023/09/26 10:17:10;;;;;;;17.23;7.68;;;;;;;;;;4824601;29;20049;-76
2023/09/26 10:19:42;;;;;;;18.65;8.88;;;;;;;;;;4836790;29;20054;-76
2023/09/26 10:22:36;;;;;;;22.48;8.43;;;;;;;;;;4822997;29;20050;-75
2023/09/26 10:25:19;;;;;;;16.20;7.82;;;;;;;;;;4824216;29;20091;-78
2023/09/26 10:27:51;;;;;;;24.48;8.43;;;;;;;;;;4824831;29;20532;-77
2023/09/26 10:30:28;;;;;;;18.65;8.85;;;;;;;;;;4830732;29;20042;-77
2023/09/26 10:33:01;;;;;;;16.58;8.23;;;;;;;;;;4843074;29;20053;-78
2023/09/26 10:35:42;;;;;;;22.17;10.25;;;;;;;;;;4842141;29;20069;-80
2023/09/26 10:38:19;;;;;;;21.50;8.90;;;;;;;;;;4842217;29;20049;-79
2023/09/26 10:40:51;;;;;;;19.30;8.50;;;;;;;;;;4827076;29;20375;-78
2023/09/26 10:43:22;;;;;;;26.48;9.32;;;;;;;;;;4831516;29;20405;-79
2023/09/26 10:45:57;;;;;;;20.65;8.60;;;;;;;;;;4841293;29;20050;-78
2023/09/26 10:48:30;;;;;;;18.85;8.50;;;;;;;;;;4841624;29;20473;-78
2023/09/26 10:51:00;;;;;;;19.90;9.52;;;;;;;;;;4841400;29;20501;-77
2023/09/26 10:53:36;;;;;;;18.63;8.55;;;;;;;;;;4841622;29;20054;-79
2023/09/26 10:56:13;;;;;;;17.45;8.38;;;;;;;;;;4841604;29;20038;-80
2023/09/26 10:58:47;;;;;;;23.25;9.77;;;;;;;;;;4841670;29;20062;-77
2023/09/26 11:01:17;;;;;;;18.48;8.38;;;;;;;;;;4841248;29;20509;-78
2023/09/26 11:03:49;;;;;;;19.10;8.90;;;;;;;;;;4841327;29;20517;-79
2023/09/26 11:06:25;;;;;;;18.25;9.35;;;;;;;;;;4841449;29;20054;-78
2023/09/26 11:09:01;;;;;;;19.83;8.98;;;;;;;;;;4841201;29;20046;-78
2023/09/26 11:11:32;;;;;;;23.73;9.02;;;;;;;;;;4840901;29;20050;-78
2023/09/26 11:14:02;;;;;;;21.70;9.52;;;;;;;;;;4851674;29;20057;-77
2023/09/26 11:16:33;;;;;;;15.93;8.77;;;;;;;;;;4872577;29;20053;-77
2023/09/26 11:19:03;;;;;;;21.88;8.95;;;;;;;;;;4859176;29;20042;-78
2023/09/26 11:21:33;;;;;;;20.50;9.05;;;;;;;;;;4859455;29;20049;-77
2023/09/26 11:24:32;;;;;;;20.83;8.77;;;;;;;;;;4857684;29;20061;-77
2023/09/26 11:27:08;;;;;;;18.30;8.98;;;;;;;;;;4860939;29;20050;-77
2023/09/26 11:29:41;;;;;;;21.67;8.38;;;;;;;;;;4863637;29;20050;-78
2023/09/26 11:32:14;;;;;;;22.98;8.80;;;;;;;;;;4863778;29;20057;-78
2023/09/26 11:34:47;;;;;;;21.30;8.20;;;;;;;;;;4863110;29;20041;-77
2023/09/26 11:37:22;;;;;;;15.45;7.30;;;;;;;;;;4861549;29;20485;-79
2023/09/26 11:39:55;;;;;;;15.23;7.95;;;;;;;;;;4863107;29;20041;-80
2023/09/26 11:42:26;;;;;;;15.43;7.45;;;;;;;;;;4864090;29;20049;-79
2023/09/26 11:44:57;;;;;;;16.20;7.68;;;;;;;;;;4863565;29;20493;-79
2023/09/26 11:47:27;;;;;;;13.40;7.50;;;;;;;;;;4863577;29;20156;-79
2023/09/26 11:50:02;;;;;;;13.73;7.25;;;;;;;;;;4864308;29;20072;-79
2023/09/26 11:52:33;;;;;;;12.13;6.95;;;;;;;;;;4862388;29;20044;-77
2023/09/26 11:55:03;;;;;;;15.90;7.75;;;;;;;;;;4863495;29;20484;-77
2023/09/26 11:57:36;;;;;;;13.20;6.95;;;;;;;;;;4863671;29;20045;-79
2023/09/26 12:00:11;;;;;;;13.23;6.90;;;;;;;;;;4876726;29;20065;-80
2023/09/26 12:02:50;;;;;;;14.65;7.40;;;;;;;;;;4863098;29;20512;-80
2023/09/26 12:05:23;;;;;;;14.48;7.40;;;;;;;;;;4863498;29;20056;-79
2023/09/26 12:11:18;;;;;;;12.93;8.13;;;;;;;;;;4862979;29;20048;-80
2023/09/26 12:14:22;;;;;;;11.90;6.50;;;;;;;;;;4862036;29;20041;-78
2023/09/26 12:16:51;;;;;;;14.13;7.35;;;;;;;;;;4851891;29;20041;-79
2023/09/26 12:19:46;;;;;;;14.30;7.72;;;;;;;;;;4861563;29;20041;-78
2023/09/26 12:22:42;;;;;;;;;;;;;;;;;;4862812;29;20042;-78
2023/09/26 12:26:02;;;;;;;12.88;7.28;;;;;;;;;;4862051;29;19931;-78
2023/09/26 12:29:24;;;;;;;14.60;6.80;;;;;;;;;;4858139;29;20043;-78
2023/09/26 12:35:42;;;;;;;15.57;7.10;;;;;;;;;;4847524;29;20498;-80
2023/09/26 12:38:40;;;;;;;11.35;7.07;;;;;;;;;;4843006;29;20061;-79
2023/09/26 12:41:11;;;;;;;13.18;7.45;;;;;;;;;;4843235;29;20585;-79
2023/09/26 12:44:37;;;;;;;15.68;7.07;;;;;;;;;;4851795;29;20046;-78
2023/09/26 12:47:09;;;;;;;12.43;7.40;;;;;;;;;;4861115;29;20056;-80
2023/09/26 12:49:44;;;;;;;19.73;7.93;;;;;;;;;;4861012;29;20401;-79
2023/09/26 12:52:24;;;;;;;13.52;7.25;;;;;;;;;;4824759;29;20056;-80
2023/09/26 12:54:56;;;;;;;18.58;7.65;;;;;;;;;;4824921;29;20414;-77
2023/09/26 12:57:26;;;;;;;17.67;7.20;;;;;;;;;;4824105;29;20054;-78
2023/09/26 13:00:00;;;;;;;14.52;7.20;;;;;;;;;;4822744;29;20046;-79
2023/09/26 13:02:40;;;;;;;14.48;6.90;;;;;;;;;;4824846;29;20047;-78
2023/09/26 13:05:10;;;;;;;11.90;6.82;;;;;;;;;;4852628;29;20056;-78
2023/09/26 13:07:40;;;;;;;11.35;7.68;;;;;;;;;;4861479;29;20057;-78
2023/09/26 13:10:11;;;;;;;17.23;7.40;;;;;;;;;;4855965;29;20376;-78
2023/09/26 13:12:44;;;;;;;12.73;7.25;;;;;;;;;;4861337;29;20045;-79
2023/09/26 13:15:17;;;;;;;12.38;7.50;;;;;;;;;;4860697;29;20412;-79
2023/09/26 13:17:47;;;;;;;11.55;8.10;;;;;;;;;;4861063;29;20460;-79
2023/09/26 13:20:17;;;;;;;18.38;7.35;;;;;;;;;;4860799;29;20102;-79
2023/09/26 13:22:49;;;;;;;14.63;7.43;;;;;;;;;;4861515;29;20057;-78
2023/09/26 13:25:22;;;;;;;14.18;7.43;;;;;;;;;;4861663;29;20109;-78
2023/09/26 13:27:56;;;;;;;;;;;;;;;;;;4861307;29;20057;-78
2023/09/26 13:30:28;;;;;;;11.88;7.38;;;;;;;;;;4860497;29;19931;-79
2023/09/26 13:32:59;;;;;;;12.52;7.72;;;;;;;;;;4861270;29;20068;-79
2023/09/26 13:35:31;;;;;;;15.65;7.80;;;;;;;;;;4861036;29;20418;-80
2023/09/26 13:38:06;;;;;;;17.30;7.90;;;;;;;;;;4860726;29;20060;-78
2023/09/26 13:40:37;;;;;;;15.13;8.32;;;;;;;;;;4851981;29;20057;-80
2023/09/26 13:43:06;;;;;;;14.63;8.55;;;;;;;;;;4842355;29;20057;-79
2023/09/26 13:45:37;;;;;;;15.05;8.27;;;;;;;;;;4855518;29;20053;-79
2023/09/26 13:48:38;;;;;;;13.75;8.63;;;;;;;;;;4860887;29;20056;-79
2023/09/26 13:51:12;;;;;;;17.60;9.07;;;;;;;;;;4861618;29;20140;-79
2023/09/26 14:00:49;;;;;;;13.38;8.60;;;;;;;;;;4861516;29;20045;-79
2023/09/26 14:03:27;;;;;;;15.48;8.70;;;;;;;;;;4861941;29;20046;-79
2023/09/26 14:05:59;;;;;;;19.23;9.45;;;;;;;;;;4861263;29;20057;-79
2023/09/26 14:08:29;;;;;;;;;;;;;;;;;;4860487;29;20054;-81
2023/09/26 14:11:01;;;;;;;14.63;8.80;;;;;;;;;;4861218;29;20383;-80
2023/09/26 14:13:34;;;;;;;14.05;8.35;;;;;;;;;;4861090;29;20053;-79
2023/09/26 14:16:05;;;;;;;14.73;8.88;;;;;;;;;;4848897;29;20495;-78
2023/09/26 14:18:36;;;;;;;14.35;8.73;;;;;;;;;;4860176;29;20144;-79
2023/09/26 14:21:13;;;;;;;16.40;9.20;;;;;;;;;;4859613;29;20054;-80
2023/09/26 14:23:45;;;;;;;17.42;9.30;;;;;;;;;;4843623;29;20429;-79
2023/09/26 14:26:17;;;;;;;15.82;9.70;;;;;;;;;;4860199;29;20037;-80
2023/09/26 14:28:48;;;;;;;14.52;8.52;;;;;;;;;;4858667;29;20056;-79
2023/09/26 14:31:20;;;;;;;15.57;9.43;;;;;;;;;;4858527;29;20053;-79
2023/09/26 14:33:51;;;;;;;14.50;9.40;;;;;;;;;;4859796;29;20064;-80
2023/09/26 14:36:22;;;;;;;13.25;8.38;;;;;;;;;;4860389;29;20366;-77
2023/09/26 14:38:52;;;;;;;15.18;9.27;;;;;;;;;;4860176;29;20061;-78
2023/09/26 14:41:26;;;;;;;16.00;9.68;;;;;;;;;;4860828;29;20049;-78
2023/09/26 14:44:00;;;;;;;14.63;9.07;;;;;;;;;;4844673;29;20057;-78
2023/09/26 14:46:34;;;;;;;14.10;9.38;;;;;;;;;;4861439;29;20053;-77
2023/09/26 14:49:05;;;;;;;18.33;9.25;;;;;;;;;;4860962;29;20060;-78
2023/09/26 14:51:40;;;;;;;16.55;9.45;;;;;;;;;;4857616;29;20049;-78
2023/09/26 14:54:11;;;;;;;14.13;8.98;;;;;;;;;;4860835;29;20532;-79
2023/09/26 14:56:42;;;;;;;17.67;9.52;;;;;;;;;;4859449;29;20049;-79
2023/09/26 14:59:12;;;;;;;14.93;9.77;;;;;;;;;;4853564;29;20053;-78
2023/09/26 15:01:45;;;;;;;14.65;8.82;;;;;;;;;;4856103;29;20045;-79
2023/09/26 15:04:16;;;;;;;15.40;9.95;;;;;;;;;;4863427;29;20049;-80
2023/09/26 15:06:47;;;;;;;19.67;9.73;;;;;;;;;;4862684;29;20050;-79
2023/09/26 15:09:17;;;;;;;13.07;9.07;;;;;;;;;;4862899;29;20050;-78
2023/09/26 15:11:50;;;;;;;14.07;9.32;;;;;;;;;;4862657;29;20049;-79
2023/09/26 15:14:20;;;;;;;15.38;9.30;;;;;;;;;;4862749;29;20056;-79
2023/09/26 15:16:52;;;;;;;13.60;9.25;;;;;;;;;;4858120;29;20046;-80
2023/09/26 15:19:22;;;;;;;16.92;9.38;;;;;;;;;;4844334;29;20057;-79
2023/09/26 15:21:52;;;;;;;15.85;9.63;;;;;;;;;;4844179;29;20057;-79
2023/09/26 15:24:24;;;;;;;17.42;9.65;;;;;;;;;;4844114;29;20050;-78
2023/09/26 15:26:55;;;;;;;12.85;8.77;;;;;;;;;;4843911;29;20421;-79
2023/09/26 15:29:28;;;;;;;17.63;8.88;;;;;;;;;;4828494;29;20518;-79
2023/09/26 15:31:58;;;;;;;15.80;8.70;;;;;;;;;;4843761;29;20054;-78